createdAt,value
2022-09-05T00:00:13.210Z,12.59
2022-09-05T00:01:13.151Z,12.58
2022-09-05T00:02:13.136Z,12.52
2022-09-05T00:03:13.227Z,12.37
2022-09-05T00:04:23.951Z,12.26
2022-09-05T00:05:14.100Z,12.25
2022-09-05T00:06:13.094Z,12.18
2022-09-05T00:07:38.841Z,12.13
2022-09-05T00:08:14.073Z,12.12
2022-09-05T00:09:13.084Z,12.23
2022-09-05T00:10:13.048Z,12.13
2022-09-05T00:11:41.934Z,12.13
2022-09-05T00:12:14.030Z,12.19
2022-09-05T00:13:13.017Z,12.22
2022-09-05T00:14:13.006Z,12.22
2022-09-05T00:15:17.392Z,12.30
2022-09-05T00:16:14.036Z,12.40
2022-09-05T00:17:12.972Z,12.37
2022-09-05T00:19:37.048Z,12.44
2022-09-05T00:22:46.690Z,12.48
2022-09-05T00:24:19.084Z,12.51
2022-09-05T00:24:24.923Z,12.43
2022-09-05T00:24:25.767Z,12.46
2022-09-05T00:24:28.312Z,12.49
2022-09-05T00:24:31.148Z,12.43
2022-09-05T00:25:31.315Z,12.40
2022-09-05T00:26:13.919Z,12.43
2022-09-05T00:27:12.865Z,12.34
2022-09-05T00:28:26.374Z,12.34
2022-09-05T00:29:14.894Z,12.31
2022-09-05T00:31:06.831Z,12.38
2022-09-05T00:31:54.005Z,12.37
2022-09-05T00:32:13.933Z,12.26
2022-09-05T00:33:17.181Z,12.25
2022-09-05T00:34:13.787Z,12.36
2022-09-05T00:35:12.780Z,12.33
2022-09-05T00:36:12.767Z,12.34
2022-09-05T00:37:14.963Z,12.29
2022-09-05T00:38:12.740Z,12.30
2022-09-05T00:39:12.732Z,12.38
2022-09-05T00:40:18.477Z,12.37
2022-09-05T00:41:13.714Z,12.30
2022-09-05T00:42:12.700Z,12.34
2022-09-05T00:43:12.693Z,12.30
2022-09-05T00:44:12.687Z,12.29
2022-09-05T00:45:19.366Z,12.25
2022-09-05T00:46:13.721Z,12.26
2022-09-05T00:47:12.640Z,12.31
2022-09-05T00:48:12.655Z,12.25
2022-09-05T00:49:12.620Z,12.34
2022-09-05T00:50:13.045Z,12.29
2022-09-05T00:51:12.598Z,12.23
2022-09-05T00:52:12.593Z,12.29
2022-09-05T00:53:12.575Z,12.11
2022-09-05T00:54:12.576Z,12.16
2022-09-05T00:55:12.555Z,12.21
2022-09-05T00:56:12.561Z,12.21
2022-09-05T00:57:12.533Z,12.29
2022-09-05T00:58:13.560Z,12.36
2022-09-05T00:59:12.513Z,12.29
2022-09-05T01:00:17.017Z,12.22
2022-09-05T01:01:21.170Z,12.37
2022-09-05T01:02:13.558Z,12.29
2022-09-05T01:03:12.505Z,12.23
2022-09-05T01:04:12.456Z,12.22
2022-09-05T01:05:12.444Z,12.21
2022-09-05T01:06:12.445Z,12.19
2022-09-05T01:07:12.425Z,12.19
2022-09-05T01:08:12.415Z,12.26
2022-09-05T01:09:12.407Z,12.26
2022-09-05T01:10:12.445Z,12.26
2022-09-05T01:11:12.394Z,12.26
2022-09-05T01:12:12.374Z,12.21
2022-09-05T01:13:12.360Z,12.26
2022-09-05T01:14:12.693Z,12.23
2022-09-05T01:15:12.341Z,12.25
2022-09-05T01:16:12.416Z,12.37
2022-09-05T01:17:12.346Z,12.19
2022-09-05T01:18:12.341Z,12.25
2022-09-05T01:19:16.093Z,12.26
2022-09-05T01:20:19.918Z,12.26
2022-09-05T01:21:13.269Z,12.22
2022-09-05T01:22:12.415Z,12.29
2022-09-05T01:23:12.250Z,12.33
2022-09-05T01:24:12.295Z,12.26
2022-09-05T01:25:12.231Z,12.25
2022-09-05T01:26:12.224Z,12.21
2022-09-05T01:27:12.219Z,12.23
2022-09-05T01:29:13.274Z,12.30
2022-09-05T01:29:19.119Z,12.34
2022-09-05T01:30:13.180Z,12.37
2022-09-05T01:31:12.275Z,12.38
2022-09-05T01:32:12.303Z,12.40
2022-09-05T01:33:12.140Z,12.29
2022-09-05T01:34:12.140Z,12.23
2022-09-05T01:35:12.119Z,12.38
2022-09-05T01:36:12.107Z,12.37
2022-09-05T01:37:26.610Z,12.43
2022-09-05T01:38:13.159Z,12.37
2022-09-05T01:40:04.467Z,12.38
2022-09-05T01:40:16.125Z,12.33
2022-09-05T01:41:18.634Z,12.37
2022-09-05T01:42:13.138Z,12.37
2022-09-05T01:43:12.034Z,12.40
2022-09-05T01:44:12.023Z,12.40
2022-09-05T01:45:12.011Z,12.44
2022-09-05T01:46:12.024Z,12.40
2022-09-05T01:47:12.004Z,12.38
2022-09-05T01:48:11.979Z,12.40
2022-09-05T01:49:11.968Z,12.25
2022-09-05T01:50:11.955Z,12.33
2022-09-05T01:51:28.259Z,12.41
2022-09-05T01:52:12.981Z,12.46
2022-09-05T01:53:11.922Z,12.29
2022-09-05T01:54:25.730Z,12.38
2022-09-05T01:55:12.900Z,12.36
2022-09-05T01:56:11.938Z,12.31
2022-09-05T01:57:11.893Z,12.34
2022-09-05T01:58:11.865Z,12.38
2022-09-05T01:59:11.853Z,12.25
2022-09-05T02:00:11.848Z,12.29
2022-09-05T02:01:25.514Z,12.16
2022-09-05T02:02:12.938Z,12.22
2022-09-05T02:03:11.869Z,12.26
2022-09-05T02:04:11.813Z,12.19
2022-09-05T02:05:11.791Z,12.30
2022-09-05T02:06:11.794Z,12.11
2022-09-05T02:07:19.435Z,12.11
2022-09-05T02:08:12.768Z,12.23
2022-09-05T02:09:11.745Z,12.29
2022-09-05T02:10:11.737Z,12.26
2022-09-05T02:11:11.738Z,12.23
2022-09-05T02:12:11.716Z,12.22
2022-09-05T02:13:11.703Z,12.16
2022-09-05T02:14:11.689Z,12.23
2022-09-05T02:15:12.678Z,12.26
2022-09-05T02:16:11.710Z,12.26
2022-09-05T02:17:27.270Z,12.22
2022-09-05T02:18:12.647Z,12.18
2022-09-05T02:19:11.647Z,12.26
2022-09-05T02:20:11.626Z,12.21
2022-09-05T02:21:11.617Z,12.26
2022-09-05T02:22:11.622Z,12.22
2022-09-05T02:23:37.598Z,12.29
2022-09-05T02:24:12.582Z,12.25
2022-09-05T02:25:33.853Z,12.21
2022-09-05T02:26:12.558Z,12.30
2022-09-05T02:27:31.865Z,12.29
2022-09-05T02:28:12.552Z,12.31
2022-09-05T02:29:11.541Z,12.22
2022-09-05T02:30:11.518Z,12.25
2022-09-05T02:31:19.440Z,12.23
2022-09-05T02:32:12.498Z,12.22
2022-09-05T02:33:11.497Z,12.18
2022-09-05T02:34:11.496Z,12.26
2022-09-05T02:35:13.831Z,12.18
2022-09-05T02:36:11.451Z,12.16
2022-09-05T02:37:11.436Z,12.23
2022-09-05T02:39:20.001Z,12.19
2022-09-05T02:45:01.206Z,12.31
2022-09-05T02:45:07.047Z,12.19
2022-09-05T02:45:10.435Z,12.21
2022-09-05T02:45:11.423Z,12.33
2022-09-05T02:45:18.109Z,12.29
2022-09-05T02:45:18.188Z,12.29
2022-09-05T02:45:25.597Z,12.21
2022-09-05T02:46:12.471Z,12.21
2022-09-05T02:47:11.443Z,12.26
2022-09-05T02:48:15.961Z,12.30
2022-09-05T02:49:17.674Z,12.23
2022-09-05T02:52:19.844Z,12.33
2022-09-05T02:57:26.302Z,12.26
2022-09-05T02:57:27.085Z,12.23
2022-09-05T02:57:39.220Z,12.30
2022-09-05T02:57:40.444Z,12.26
2022-09-05T02:57:41.756Z,12.25
2022-09-05T02:57:42.650Z,12.25
2022-09-05T02:57:45.820Z,12.25
2022-09-05T02:58:12.485Z,12.23
2022-09-05T02:59:11.282Z,12.25
2022-09-05T03:00:11.183Z,12.26
2022-09-05T03:01:11.234Z,12.18
2022-09-05T03:02:26.227Z,12.26
2022-09-05T03:03:12.221Z,12.21
2022-09-05T03:04:11.143Z,12.31
2022-09-05T03:05:11.129Z,12.23
2022-09-05T03:06:11.116Z,12.22
2022-09-05T03:07:11.108Z,12.25
2022-09-05T03:08:11.170Z,12.33
2022-09-05T03:09:17.471Z,12.30
2022-09-05T03:10:12.097Z,12.40
2022-09-05T03:11:11.130Z,12.33
2022-09-05T03:12:27.181Z,12.22
2022-09-05T03:13:12.045Z,12.25
2022-09-05T03:14:11.044Z,12.22
2022-09-05T03:15:18.435Z,12.36
2022-09-05T03:16:12.072Z,12.23
2022-09-05T03:17:11.033Z,12.26
2022-09-05T03:18:20.351Z,12.19
2022-09-05T03:19:11.980Z,12.23
2022-09-05T03:20:10.975Z,12.22
2022-09-05T03:21:10.957Z,12.26
2022-09-05T03:22:11.059Z,12.40
2022-09-05T03:23:10.938Z,12.23
2022-09-05T03:24:10.923Z,12.43
2022-09-05T03:25:10.915Z,12.43
2022-09-05T03:26:10.901Z,12.40
2022-09-05T03:27:10.895Z,12.30
2022-09-05T03:28:10.889Z,12.34
2022-09-05T03:29:10.868Z,12.30
2022-09-05T03:30:10.855Z,12.38
2022-09-05T03:31:20.273Z,12.34
2022-09-05T03:32:11.836Z,12.40
2022-09-05T03:33:10.834Z,12.34
2022-09-05T03:34:10.812Z,12.37
2022-09-05T03:35:10.906Z,12.40
2022-09-05T03:36:10.789Z,12.34
2022-09-05T03:37:10.780Z,12.40
2022-09-05T03:38:10.770Z,12.25
2022-09-05T03:39:10.754Z,12.31
2022-09-05T03:40:15.801Z,12.31
2022-09-05T03:41:11.759Z,12.36
2022-09-05T03:42:14.989Z,12.22
2022-09-05T03:43:10.712Z,12.43
2022-09-05T03:44:10.704Z,12.38
2022-09-05T03:45:10.697Z,12.26
2022-09-05T03:46:10.932Z,12.25
2022-09-05T03:47:10.686Z,12.44
2022-09-05T03:48:16.509Z,12.41
2022-09-05T03:49:50.187Z,12.34
2022-09-05T03:54:59.749Z,12.36
2022-09-05T03:55:59.962Z,12.30
2022-09-05T03:57:10.324Z,12.41
2022-09-05T03:57:16.114Z,12.34
2022-09-05T03:57:16.116Z,12.25
2022-09-05T03:57:17.061Z,12.25
2022-09-05T03:57:20.725Z,12.26
2022-09-05T03:57:32.555Z,12.16
2022-09-05T03:58:16.672Z,12.29
2022-09-05T03:59:11.540Z,12.21
2022-09-05T04:00:10.544Z,12.21
2022-09-05T04:02:52.622Z,12.23
2022-09-05T04:06:58.380Z,12.03
2022-09-05T04:08:09.999Z,12.07
2022-09-05T04:08:10.223Z,12.11
2022-09-05T04:08:18.857Z,12.22
2022-09-05T04:08:24.732Z,12.22
2022-09-05T04:08:28.551Z,12.23
2022-09-05T04:08:38.944Z,12.29
2022-09-05T04:09:11.512Z,12.23
2022-09-05T04:10:10.530Z,12.33
2022-09-05T04:11:10.412Z,12.26
2022-09-05T04:12:10.414Z,12.25
2022-09-05T04:13:10.384Z,12.30
2022-09-05T04:14:10.386Z,12.25
2022-09-05T04:15:10.365Z,12.21
2022-09-05T04:16:10.405Z,12.23
2022-09-05T04:17:10.343Z,12.29
2022-09-05T04:18:10.345Z,12.25
2022-09-05T04:19:10.320Z,12.25
2022-09-05T04:20:10.311Z,12.30
2022-09-05T04:21:10.300Z,12.23
2022-09-05T04:22:10.289Z,12.26
2022-09-05T04:23:10.275Z,12.38
2022-09-05T04:24:10.280Z,12.25
2022-09-05T04:25:10.257Z,12.33
2022-09-05T04:26:11.439Z,12.31
2022-09-05T04:27:10.230Z,12.25
2022-09-05T04:28:10.278Z,12.37
2022-09-05T04:29:10.221Z,12.31
2022-09-05T04:30:39.880Z,12.26
2022-09-05T04:31:11.187Z,12.18
2022-09-05T04:32:18.031Z,12.19
2022-09-05T04:33:11.172Z,12.21
2022-09-05T04:34:10.156Z,12.25
2022-09-05T04:35:10.146Z,12.26
2022-09-05T04:36:12.053Z,12.29
2022-09-05T04:37:11.124Z,12.33
2022-09-05T04:38:10.114Z,12.33
2022-09-05T04:39:10.154Z,12.30
2022-09-05T04:40:10.155Z,12.30
2022-09-05T04:41:10.143Z,12.31
2022-09-05T04:42:10.078Z,12.41
2022-09-05T04:43:10.062Z,12.46
2022-09-05T04:44:10.269Z,12.46
2022-09-05T04:45:10.060Z,12.31
2022-09-05T04:46:10.149Z,12.37
2022-09-05T04:47:10.023Z,12.41
2022-09-05T04:48:10.008Z,12.36
2022-09-05T04:49:09.997Z,12.31
2022-09-05T04:50:09.992Z,12.43
2022-09-05T04:51:10.203Z,12.43
2022-09-05T04:52:10.116Z,12.37
2022-09-05T04:53:09.950Z,12.41
2022-09-05T04:54:10.055Z,12.56
2022-09-05T04:55:09.928Z,12.54
2022-09-05T04:56:09.926Z,12.66
2022-09-05T04:57:11.751Z,12.59
2022-09-05T04:58:09.897Z,12.55
2022-09-05T05:02:33.518Z,12.58
2022-09-05T05:03:37.620Z,12.54
2022-09-05T05:05:59.533Z,12.56
2022-09-05T05:06:00.542Z,12.55
2022-09-05T05:06:08.548Z,12.55
2022-09-05T05:06:09.582Z,12.58
2022-09-05T05:06:10.662Z,12.59
2022-09-05T05:06:38.128Z,12.59
2022-09-05T05:07:10.946Z,12.58
2022-09-05T05:08:09.930Z,12.61
2022-09-05T05:09:09.774Z,12.55
2022-09-05T05:12:36.197Z,12.58
2022-09-05T05:17:12.887Z,12.55
2022-09-05T05:17:55.152Z,12.67
2022-09-05T05:17:57.331Z,12.71
2022-09-05T05:18:01.917Z,12.67
2022-09-05T05:18:09.412Z,12.80
2022-09-05T05:18:13.565Z,12.74
2022-09-05T05:18:14.520Z,12.71
2022-09-05T05:18:50.847Z,12.81
2022-09-05T05:19:18.549Z,12.81
2022-09-05T05:20:40.287Z,12.87
2022-09-05T05:21:10.659Z,12.74
2022-09-05T05:22:09.636Z,12.85
2022-09-05T05:23:09.642Z,12.80
2022-09-05T05:24:09.615Z,12.88
2022-09-05T05:25:09.611Z,12.96
2022-09-05T05:26:09.587Z,12.84
2022-09-05T05:27:09.574Z,12.85
2022-09-05T05:28:18.663Z,12.77
2022-09-05T05:29:10.581Z,12.94
2022-09-05T05:30:09.641Z,13.01
2022-09-05T05:31:09.656Z,12.98
2022-09-05T05:32:09.520Z,13.03
2022-09-05T05:33:09.527Z,12.99
2022-09-05T05:34:12.981Z,13.07
2022-09-05T05:35:10.490Z,13.09
2022-09-05T05:36:09.489Z,13.01
2022-09-05T05:37:09.466Z,13.07
2022-09-05T05:38:09.509Z,13.14
2022-09-05T05:39:09.498Z,13.17
2022-09-05T05:40:09.526Z,13.14
2022-09-05T05:41:09.514Z,13.10
2022-09-05T05:42:20.968Z,13.07
2022-09-05T05:43:10.400Z,13.25
2022-09-05T05:44:09.422Z,13.09
2022-09-05T05:45:09.430Z,13.12
2022-09-05T05:46:09.437Z,13.16
2022-09-05T05:47:09.358Z,13.10
2022-09-05T05:48:09.345Z,13.07
2022-09-05T05:49:09.332Z,12.99
2022-09-05T05:50:11.254Z,13.12
2022-09-05T05:51:09.325Z,13.07
2022-09-05T05:52:09.301Z,13.09
2022-09-05T05:53:09.295Z,13.06
2022-09-05T05:54:09.338Z,13.21
2022-09-05T05:55:48.950Z,13.22
2022-09-05T05:56:10.259Z,13.27
2022-09-05T05:57:15.076Z,13.29
2022-09-05T05:58:10.246Z,13.41
2022-09-05T05:59:09.228Z,13.35
2022-09-05T06:00:09.221Z,13.43
2022-09-05T06:01:28.905Z,13.44
2022-09-05T06:02:10.349Z,13.47
2022-09-05T06:03:26.768Z,13.47
2022-09-05T06:04:10.168Z,13.54
2022-09-05T06:05:09.160Z,13.62
2022-09-05T06:06:09.149Z,13.63
2022-09-05T06:07:09.903Z,13.62
2022-09-05T06:11:23.338Z,13.72
2022-09-05T06:12:05.638Z,13.72
2022-09-05T06:14:56.141Z,13.62
2022-09-05T06:15:02.368Z,13.62
2022-09-05T06:15:04.539Z,13.68
2022-09-05T06:15:06.631Z,13.73
2022-09-05T06:15:06.631Z,13.59
2022-09-05T06:15:12.333Z,13.81
2022-09-05T06:16:09.148Z,13.87
2022-09-05T06:17:09.029Z,13.75
2022-09-05T06:18:09.014Z,13.83
2022-09-05T06:19:09.005Z,13.81
2022-09-05T06:22:04.483Z,13.91
2022-09-05T06:22:09.904Z,13.94
2022-09-05T06:22:14.777Z,13.93
2022-09-05T06:23:28.742Z,13.96
2022-09-05T06:24:09.944Z,13.99
2022-09-05T06:25:16.901Z,13.93
2022-09-05T06:26:09.939Z,13.94
2022-09-05T06:27:08.917Z,13.99
2022-09-05T06:28:19.045Z,13.98
2022-09-05T06:29:09.895Z,14.01
2022-09-05T06:30:08.967Z,13.98
2022-09-05T06:31:29.232Z,13.96
2022-09-05T06:32:09.958Z,13.94
2022-09-05T06:33:08.850Z,13.94
2022-09-05T06:34:30.859Z,13.98
2022-09-05T06:35:09.840Z,13.99
2022-09-05T06:36:08.816Z,13.94
2022-09-05T06:37:08.805Z,14.06
2022-09-05T06:38:08.793Z,14.04
2022-09-05T06:39:08.782Z,14.06
2022-09-05T06:40:08.908Z,14.09
2022-09-05T06:41:08.783Z,14.05
2022-09-05T06:42:08.757Z,14.08
2022-09-05T06:43:09.736Z,14.08
2022-09-05T06:44:08.725Z,14.08
2022-09-05T06:45:27.835Z,14.02
2022-09-05T06:46:09.853Z,14.05
2022-09-05T06:47:24.332Z,14.04
2022-09-05T06:48:09.734Z,13.99
2022-09-05T06:49:28.208Z,14.06
2022-09-05T06:50:27.090Z,14.17
2022-09-05T06:51:09.674Z,14.21
2022-09-05T06:52:28.958Z,14.11
2022-09-05T06:53:19.597Z,14.29
2022-09-05T06:54:09.618Z,14.17
2022-09-05T06:55:08.618Z,14.24
2022-09-05T06:56:08.606Z,14.34
2022-09-05T06:57:08.588Z,14.34
2022-09-05T06:58:08.621Z,14.45
2022-09-05T06:59:09.951Z,14.54
2022-09-05T07:00:17.515Z,14.71
2022-09-05T07:01:09.686Z,14.61
2022-09-05T07:02:08.806Z,14.74
2022-09-05T07:03:08.615Z,14.79
2022-09-05T07:04:33.353Z,14.83
2022-09-05T07:05:37.855Z,15.05
2022-09-05T07:06:09.528Z,15.01
2022-09-05T07:07:09.516Z,15.15
2022-09-05T07:08:25.123Z,15.19
2022-09-05T07:09:09.452Z,15.35
2022-09-05T07:10:28.267Z,15.40
2022-09-05T07:11:15.848Z,15.41
2022-09-05T07:12:09.414Z,15.48
2022-09-05T07:13:08.501Z,15.59
2022-09-05T07:14:08.397Z,15.68
2022-09-05T07:15:09.332Z,16.03
2022-09-05T07:16:08.435Z,15.91
2022-09-05T07:17:08.376Z,15.78
2022-09-05T07:18:10.911Z,15.99
2022-09-05T07:19:08.338Z,15.95
2022-09-05T07:20:08.352Z,16.50
2022-09-05T07:21:17.309Z,16.73
2022-09-05T07:22:41.733Z,16.65
2022-09-05T07:23:49.290Z,16.63
2022-09-05T07:24:11.023Z,16.85
2022-09-05T07:25:08.769Z,17.30
2022-09-05T07:26:08.264Z,17.17
2022-09-05T07:27:09.267Z,17.05
2022-09-05T07:28:25.761Z,17.05
2022-09-05T07:29:09.915Z,16.96
2022-09-05T07:30:08.218Z,17.06
2022-09-05T07:31:08.256Z,17.21
2022-09-05T07:32:08.267Z,17.21
2022-09-05T07:33:08.185Z,16.90
2022-09-05T07:34:21.150Z,16.90
2022-09-05T07:35:09.192Z,16.85
2022-09-05T07:36:08.152Z,16.81
2022-09-05T07:37:15.474Z,17.45
2022-09-05T07:38:09.182Z,17.98
2022-09-05T07:39:27.459Z,18.19
2022-09-05T07:40:25.229Z,18.47
2022-09-05T07:41:09.093Z,18.56
2022-09-05T07:42:08.096Z,18.51
2022-09-05T07:43:09.813Z,18.46
2022-09-05T07:44:08.069Z,18.47
2022-09-05T07:45:08.079Z,18.44
2022-09-05T07:46:08.118Z,18.35
2022-09-05T07:47:08.036Z,18.39
2022-09-05T07:48:08.075Z,18.90
2022-09-05T07:49:08.010Z,18.97
2022-09-05T07:51:00.665Z,19.24
2022-09-05T07:56:46.167Z,19.05
2022-09-05T07:56:48.886Z,19.35
2022-09-05T07:56:49.968Z,19.15
2022-09-05T07:57:09.517Z,19.27
2022-09-05T07:57:09.637Z,19.43
2022-09-05T07:57:15.733Z,19.40
2022-09-05T07:57:26.952Z,19.64
2022-09-05T07:58:08.915Z,20.13
2022-09-05T07:59:07.902Z,20.27
2022-09-05T08:00:07.945Z,20.00
2022-09-05T08:01:08.934Z,19.76
2022-09-05T08:02:07.895Z,19.57
2022-09-05T08:03:07.940Z,19.50
2022-09-05T08:04:07.844Z,19.89
2022-09-05T08:05:07.930Z,20.22
2022-09-05T08:06:07.825Z,20.16
2022-09-05T08:07:49.684Z,19.94
2022-09-05T08:08:08.819Z,20.02
2022-09-05T08:09:50.903Z,19.83
2022-09-05T08:10:10.341Z,19.38
2022-09-05T08:11:23.403Z,19.43
2022-09-05T08:12:09.915Z,19.62
2022-09-05T08:13:24.578Z,19.60
2022-09-05T08:14:40.675Z,19.67
2022-09-05T08:15:10.333Z,19.50
2022-09-05T08:16:13.317Z,19.24
2022-09-05T08:17:08.713Z,19.38
2022-09-05T08:18:07.689Z,19.39
2022-09-05T08:19:07.679Z,19.71
2022-09-05T08:20:08.827Z,19.76
2022-09-05T08:21:07.658Z,20.25
2022-09-05T08:22:07.647Z,20.22
2022-09-05T08:23:07.649Z,20.35
2022-09-05T08:24:13.122Z,20.17
2022-09-05T08:25:08.612Z,20.01
2022-09-05T08:26:07.602Z,19.78
2022-09-05T08:27:10.168Z,20.00
2022-09-05T08:28:08.594Z,20.38
2022-09-05T08:29:07.570Z,20.33
2022-09-05T08:30:26.852Z,19.89
2022-09-05T08:31:08.617Z,19.52
2022-09-05T08:32:07.541Z,19.55
2022-09-05T08:33:11.480Z,19.64
2022-09-05T08:34:07.523Z,19.75
2022-09-05T08:35:07.503Z,19.97
2022-09-05T08:36:07.602Z,20.05
2022-09-05T08:37:07.481Z,20.10
2022-09-05T08:38:07.482Z,20.08
2022-09-05T08:39:07.532Z,20.58
2022-09-05T08:40:10.492Z,20.81
2022-09-05T08:41:07.438Z,20.97
2022-09-05T08:42:07.440Z,20.23
2022-09-05T08:45:52.055Z,20.15
2022-09-05T08:46:37.302Z,20.19
2022-09-05T08:46:39.203Z,20.87
2022-09-05T08:46:42.699Z,20.61
2022-09-05T08:47:08.446Z,20.91
2022-09-05T08:48:07.449Z,20.75
2022-09-05T08:49:12.280Z,20.91
2022-09-05T08:50:08.485Z,21.12
2022-09-05T08:51:07.338Z,20.96
2022-09-05T08:52:07.328Z,20.97
2022-09-05T08:53:26.334Z,20.79
2022-09-05T08:54:08.294Z,20.60
2022-09-05T08:55:07.805Z,20.61
2022-09-05T08:56:07.273Z,20.76
2022-09-05T08:57:07.326Z,21.05
2022-09-05T08:58:07.318Z,20.81
2022-09-05T08:59:28.990Z,20.79
2022-09-05T09:00:20.330Z,20.91
2022-09-05T09:01:08.304Z,21.31
2022-09-05T09:02:46.207Z,21.36
2022-09-05T09:03:08.265Z,21.19
2022-09-05T09:04:10.710Z,21.51
2022-09-05T09:05:07.179Z,22.06
2022-09-05T09:06:14.268Z,22.23
2022-09-05T09:07:47.308Z,22.44
2022-09-05T09:08:08.151Z,21.93
2022-09-05T09:09:07.171Z,21.86
2022-09-05T09:10:07.117Z,21.71
2022-09-05T09:11:07.157Z,21.58
2022-09-05T09:12:07.095Z,21.45
2022-09-05T09:13:07.146Z,21.51
2022-09-05T09:14:07.071Z,21.51
2022-09-05T09:15:07.062Z,21.79
2022-09-05T09:16:07.108Z,21.90
2022-09-05T09:17:07.097Z,21.67
2022-09-05T09:18:10.230Z,21.63
2022-09-05T09:19:07.018Z,21.26
2022-09-05T09:20:07.022Z,21.18
2022-09-05T09:21:07.046Z,21.18
2022-09-05T09:22:06.984Z,20.90
2022-09-05T09:23:06.979Z,21.28
2022-09-05T09:24:08.013Z,21.38
2022-09-05T09:25:15.771Z,21.43
2022-09-05T09:26:07.945Z,21.26
2022-09-05T09:27:06.941Z,21.09
2022-09-05T09:28:49.745Z,20.60
2022-09-05T09:29:07.986Z,20.81
2022-09-05T09:30:06.899Z,20.96
2022-09-05T09:31:07.026Z,21.22
2022-09-05T09:32:06.945Z,21.21
2022-09-05T09:33:06.865Z,21.06
2022-09-05T09:34:06.906Z,21.33
2022-09-05T09:35:06.846Z,21.36
2022-09-05T09:36:08.184Z,21.06
2022-09-05T09:37:06.946Z,20.82
2022-09-05T09:38:06.816Z,20.68
2022-09-05T09:39:11.731Z,20.51
2022-09-05T09:40:07.817Z,20.56
2022-09-05T09:41:06.775Z,20.68
2022-09-05T09:42:06.767Z,21.19
2022-09-05T09:43:07.331Z,21.58
2022-09-05T09:44:06.796Z,21.79
2022-09-05T09:45:27.459Z,21.71
2022-09-05T09:46:07.768Z,21.18
2022-09-05T09:47:06.722Z,20.79
2022-09-05T09:48:06.714Z,20.54
2022-09-05T09:49:22.778Z,20.96
2022-09-05T09:50:07.675Z,20.90
2022-09-05T09:51:06.696Z,21.05
2022-09-05T09:52:06.750Z,21.01
2022-09-05T09:53:07.693Z,20.98
2022-09-05T09:54:06.631Z,20.63
2022-09-05T09:55:06.717Z,20.64
2022-09-05T09:56:06.870Z,20.85
2022-09-05T09:57:06.601Z,21.01
2022-09-05T09:58:06.606Z,20.98
2022-09-05T09:59:06.579Z,21.21
2022-09-05T10:00:06.564Z,21.21
2022-09-05T10:01:35.513Z,21.01
2022-09-05T10:03:42.332Z,20.97
2022-09-05T10:04:31.170Z,20.85
2022-09-05T10:10:37.914Z,21.03
2022-09-05T10:10:39.008Z,20.81
2022-09-05T10:10:45.885Z,20.78
2022-09-05T10:10:46.167Z,20.93
2022-09-05T10:10:52.399Z,20.88
2022-09-05T10:10:58.713Z,20.61
2022-09-05T10:11:09.182Z,21.21
2022-09-05T10:11:42.687Z,21.12
2022-09-05T10:12:08.006Z,21.33
2022-09-05T10:13:08.939Z,21.53
2022-09-05T10:14:06.529Z,22.04
2022-09-05T10:15:31.129Z,22.08
2022-09-05T10:16:07.636Z,21.93
2022-09-05T10:17:06.378Z,21.89
2022-09-05T10:18:06.801Z,21.59
2022-09-05T10:19:06.355Z,21.30
2022-09-05T10:20:08.967Z,21.24
2022-09-05T10:21:16.649Z,21.45
2022-09-05T10:23:07.370Z,21.21
2022-09-05T10:24:06.304Z,21.24
2022-09-05T10:25:16.445Z,21.11
2022-09-05T10:26:07.297Z,21.13
2022-09-05T10:27:06.268Z,21.18
2022-09-05T10:28:06.328Z,21.37
2022-09-05T10:29:11.755Z,21.82
2022-09-05T10:30:07.285Z,21.79
2022-09-05T10:34:32.760Z,21.74
2022-09-05T10:35:10.553Z,21.83
2022-09-05T10:35:11.472Z,22.61
2022-09-05T10:35:14.104Z,22.05
2022-09-05T10:35:20.888Z,23.15
2022-09-05T10:36:07.224Z,22.96
2022-09-05T10:37:06.166Z,22.60
2022-09-05T10:38:10.524Z,22.76
2022-09-05T10:39:06.298Z,22.85
2022-09-05T10:40:06.212Z,22.52
2022-09-05T10:41:21.409Z,22.54
2022-09-05T10:42:07.111Z,22.78
2022-09-05T10:43:06.157Z,22.89
2022-09-05T10:44:06.091Z,22.88
2022-09-05T10:45:06.092Z,23.04
2022-09-05T10:46:06.129Z,23.52
2022-09-05T10:47:06.243Z,23.57
2022-09-05T10:48:12.945Z,23.49
2022-09-05T10:49:07.036Z,23.68
2022-09-05T10:50:06.028Z,23.72
2022-09-05T10:51:06.033Z,23.92
2022-09-05T10:52:18.873Z,23.90
2022-09-05T10:53:07.022Z,23.62
2022-09-05T10:54:06.017Z,23.41
2022-09-05T10:55:14.665Z,23.07
2022-09-05T10:56:06.977Z,23.11
2022-09-05T10:57:05.986Z,22.94
2022-09-05T10:58:05.942Z,22.72
2022-09-05T11:02:16.616Z,22.51
2022-09-05T11:02:20.025Z,22.36
2022-09-05T11:02:24.379Z,21.91
2022-09-05T11:02:27.008Z,22.06
2022-09-05T11:03:22.498Z,22.31
2022-09-05T11:04:07.019Z,22.39
2022-09-05T11:05:05.917Z,22.27
2022-09-05T11:06:09.484Z,22.19
2022-09-05T11:07:05.875Z,21.85
2022-09-05T11:08:05.831Z,22.04
2022-09-05T11:09:05.834Z,22.20
2022-09-05T11:10:05.875Z,22.51
2022-09-05T11:11:05.808Z,22.59
2022-09-05T11:12:05.861Z,22.49
2022-09-05T11:13:05.852Z,22.49
2022-09-05T11:14:05.818Z,22.35
2022-09-05T11:15:05.754Z,22.52
2022-09-05T11:16:08.306Z,22.97
2022-09-05T11:17:05.751Z,23.44
2022-09-05T11:18:06.122Z,22.94
2022-09-05T11:19:05.762Z,22.57
2022-09-05T11:20:05.700Z,22.97
2022-09-05T11:21:06.762Z,23.45
2022-09-05T11:22:22.805Z,23.04
2022-09-05T11:23:06.809Z,23.21
2022-09-05T11:24:05.689Z,22.82
2022-09-05T11:25:05.650Z,22.91
2022-09-05T11:26:05.638Z,22.86
2022-09-05T11:27:23.389Z,22.88
2022-09-05T11:28:06.628Z,23.06
2022-09-05T11:29:05.624Z,23.41
2022-09-05T11:30:05.595Z,23.18
2022-09-05T11:31:05.636Z,22.93
2022-09-05T11:34:18.199Z,23.41
2022-09-05T11:39:46.309Z,23.37
2022-09-05T11:39:46.390Z,22.69
2022-09-05T11:39:47.316Z,22.69
2022-09-05T11:39:58.407Z,23.64
2022-09-05T11:39:59.340Z,23.84
2022-09-05T11:40:08.558Z,23.18
2022-09-05T11:40:09.883Z,23.44
2022-09-05T11:40:29.297Z,24.02
2022-09-05T11:41:12.360Z,24.12
2022-09-05T11:42:06.531Z,23.74
2022-09-05T11:43:05.542Z,23.82
2022-09-05T11:44:13.610Z,23.69
2022-09-05T11:45:06.489Z,23.75
2022-09-05T11:46:05.486Z,23.78
2022-09-05T11:47:27.989Z,23.78
2022-09-05T11:48:06.403Z,23.92
2022-09-05T11:49:05.400Z,24.06
2022-09-05T11:50:09.207Z,24.12
2022-09-05T11:51:05.366Z,24.30
2022-09-05T11:52:05.414Z,24.27
2022-09-05T11:53:05.342Z,24.68
2022-09-05T11:54:05.344Z,24.97
2022-09-05T11:55:05.370Z,24.94
2022-09-05T11:56:05.309Z,24.89
2022-09-05T11:57:32.708Z,24.89
2022-09-05T11:58:43.930Z,25.23
2022-09-05T11:59:06.543Z,25.46
2022-09-05T12:00:31.848Z,25.46
2022-09-05T12:01:42.666Z,25.51
2022-09-05T12:02:10.981Z,25.56
2022-09-05T12:03:06.230Z,25.64
2022-09-05T12:04:09.965Z,25.22
2022-09-05T12:05:50.306Z,24.89
2022-09-05T12:06:06.306Z,24.83
2022-09-05T12:07:27.059Z,24.89
2022-09-05T12:08:06.173Z,25.19
2022-09-05T12:09:06.212Z,25.42
2022-09-05T12:10:05.213Z,25.54
2022-09-05T12:11:05.140Z,25.53
2022-09-05T12:12:05.148Z,25.44
2022-09-05T12:13:07.063Z,25.46
2022-09-05T12:14:13.812Z,25.38
2022-09-05T12:15:07.379Z,25.39
2022-09-05T12:16:08.212Z,25.63
2022-09-05T12:17:10.158Z,25.42
2022-09-05T12:18:18.981Z,25.39
2022-09-05T12:19:18.565Z,25.41
2022-09-05T12:20:06.045Z,25.23
2022-09-05T12:21:07.923Z,25.19
2022-09-05T12:22:09.068Z,25.39
2022-09-05T12:23:05.012Z,25.31
2022-09-05T12:24:40.834Z,25.01
2022-09-05T12:25:25.753Z,25.16
2022-09-05T12:27:42.635Z,25.05
2022-09-05T12:27:45.034Z,24.94
2022-09-05T12:29:26.087Z,25.07
2022-09-05T12:29:32.606Z,25.14
2022-09-05T12:30:06.204Z,25.48
2022-09-05T12:32:34.469Z,25.35
2022-09-05T12:33:09.748Z,25.45
2022-09-05T12:35:44.041Z,25.45
2022-09-05T12:36:11.387Z,25.56
2022-09-05T12:36:11.892Z,25.42
2022-09-05T12:40:36.862Z,26.08
2022-09-05T12:40:38.519Z,25.91
2022-09-05T12:40:56.978Z,25.94
2022-09-05T12:41:38.352Z,25.69
2022-09-05T12:41:38.578Z,25.90
2022-09-05T12:42:08.417Z,25.64
2022-09-05T12:42:15.230Z,25.60
2022-09-05T12:44:40.074Z,25.81
2022-09-05T12:44:41.156Z,25.71
2022-09-05T12:45:06.043Z,25.64
2022-09-05T12:46:07.112Z,25.44
2022-09-05T12:47:16.871Z,25.46
2022-09-05T12:48:05.761Z,25.78
2022-09-05T12:49:07.331Z,25.71
2022-09-05T12:50:14.874Z,25.81
2022-09-05T12:51:05.713Z,25.76
2022-09-05T12:52:04.706Z,25.48
2022-09-05T12:53:04.687Z,25.17